sensor_id;sensor_type;location;lat;lon;timestamp;P1;durP1;ratioP1;P2;durP2;ratioP2
7142;SDS011;3613;48.902;9.204;2023-10-31T00:00:11;1.57;;;1.47;;
7142;SDS011;3613;48.902;9.204;2023-10-31T00:02:39;2.43;;;1.47;;
7142;SDS011;3613;48.902;9.204;2023-10-31T00:05:07;1.63;;;1.30;;
7142;SDS011;3613;48.902;9.204;2023-10-31T00:07:33;2.20;;;1.57;;
7142;SDS011;3613;48.902;9.204;2023-10-31T00:10:01;2.23;;;1.37;;
7142;SDS011;3613;48.902;9.204;2023-10-31T00:12:27;1.40;;;1.30;;
7142;SDS011;3613;48.902;9.204;2023-10-31T00:14:52;2.63;;;1.30;;
7142;SDS011;3613;48.902;9.204;2023-10-31T00:17:18;1.20;;;1.10;;
7142;SDS011;3613;48.902;9.204;2023-10-31T00:19:46;1.53;;;1.00;;
7142;SDS011;3613;48.902;9.204;2023-10-31T00:22:14;1.13;;;0.90;;
7142;SDS011;3613;48.902;9.204;2023-10-31T00:24:39;3.13;;;1.20;;
7142;SDS011;3613;48.902;9.204;2023-10-31T00:27:05;1.77;;;1.00;;
7142;SDS011;3613;48.902;9.204;2023-10-31T00:29:31;1.30;;;0.90;;
7142;SDS011;3613;48.902;9.204;2023-10-31T00:31:56;0.90;;;0.90;;
7142;SDS011;3613;48.902;9.204;2023-10-31T00:34:24;1.10;;;0.90;;
7142;SDS011;3613;48.902;9.204;2023-10-31T00:36:52;1.60;;;1.00;;
7142;SDS011;3613;48.902;9.204;2023-10-31T00:39:17;1.17;;;0.77;;
7142;SDS011;3613;48.902;9.204;2023-10-31T00:41:46;4.00;;;1.10;;
7142;SDS011;3613;48.902;9.204;2023-10-31T00:44:12;1.20;;;1.10;;
7142;SDS011;3613;48.902;9.204;2023-10-31T00:46:42;2.80;;;0.90;;
7142;SDS011;3613;48.902;9.204;2023-10-31T00:49:08;1.00;;;1.00;;
7142;SDS011;3613;48.902;9.204;2023-10-31T00:51:34;1.20;;;1.10;;
7142;SDS011;3613;48.902;9.204;2023-10-31T00:54:00;2.93;;;1.10;;
7142;SDS011;3613;48.902;9.204;2023-10-31T00:56:25;1.43;;;1.10;;
7142;SDS011;3613;48.902;9.204;2023-10-31T00:58:51;1.27;;;1.07;;
7142;SDS011;3613;48.902;9.204;2023-10-31T01:01:19;1.10;;;1.00;;
7142;SDS011;3613;48.902;9.204;2023-10-31T01:03:45;1.10;;;0.90;;
7142;SDS011;3613;48.902;9.204;2023-10-31T01:06:13;1.73;;;1.20;;
7142;SDS011;3613;48.902;9.204;2023-10-31T01:08:38;2.10;;;1.30;;
7142;SDS011;3613;48.902;9.204;2023-10-31T01:11:04;1.80;;;1.07;;
7142;SDS011;3613;48.902;9.204;2023-10-31T01:13:33;3.17;;;1.40;;
7142;SDS011;3613;48.902;9.204;2023-10-31T01:15:59;2.33;;;1.27;;
7142;SDS011;3613;48.902;9.204;2023-10-31T01:18:24;2.47;;;1.37;;
7142;SDS011;3613;48.902;9.204;2023-10-31T01:20:51;1.00;;;1.00;;
7142;SDS011;3613;48.902;9.204;2023-10-31T01:23:18;1.80;;;1.17;;
7142;SDS011;3613;48.902;9.204;2023-10-31T01:25:44;1.17;;;1.07;;
7142;SDS011;3613;48.902;9.204;2023-10-31T01:28:10;1.53;;;1.43;;
7142;SDS011;3613;48.902;9.204;2023-10-31T01:30:36;2.50;;;1.33;;
7142;SDS011;3613;48.902;9.204;2023-10-31T01:33:02;2.00;;;1.30;;
7142;SDS011;3613;48.902;9.204;2023-10-31T01:35:27;2.90;;;1.37;;
7142;SDS011;3613;48.902;9.204;2023-10-31T01:37:53;1.50;;;1.33;;
7142;SDS011;3613;48.902;9.204;2023-10-31T01:40:21;1.40;;;1.03;;
7142;SDS011;3613;48.902;9.204;2023-10-31T01:42:47;2.73;;;1.33;;
7142;SDS011;3613;48.902;9.204;2023-10-31T01:45:18;1.37;;;1.10;;
7142;SDS011;3613;48.902;9.204;2023-10-31T01:47:46;2.20;;;1.10;;
7142;SDS011;3613;48.902;9.204;2023-10-31T01:50:16;1.93;;;1.30;;
7142;SDS011;3613;48.902;9.204;2023-10-31T01:52:43;1.40;;;1.30;;
7142;SDS011;3613;48.902;9.204;2023-10-31T01:55:09;3.97;;;1.37;;
7142;SDS011;3613;48.902;9.204;2023-10-31T01:57:35;1.70;;;1.50;;
7142;SDS011;3613;48.902;9.204;2023-10-31T02:00:01;2.07;;;1.20;;
7142;SDS011;3613;48.902;9.204;2023-10-31T02:02:27;1.83;;;1.20;;
7142;SDS011;3613;48.902;9.204;2023-10-31T02:05:00;3.10;;;1.10;;
7142;SDS011;3613;48.902;9.204;2023-10-31T02:07:26;1.80;;;1.47;;
7142;SDS011;3613;48.902;9.204;2023-10-31T02:09:52;2.57;;;1.17;;
7142;SDS011;3613;48.902;9.204;2023-10-31T02:12:41;4.10;;;1.83;;
7142;SDS011;3613;48.902;9.204;2023-10-31T02:15:08;1.67;;;1.10;;
7142;SDS011;3613;48.902;9.204;2023-10-31T02:17:34;4.83;;;1.40;;
7142;SDS011;3613;48.902;9.204;2023-10-31T02:20:03;5.53;;;1.40;;
7142;SDS011;3613;48.902;9.204;2023-10-31T02:22:29;2.20;;;1.10;;
7142;SDS011;3613;48.902;9.204;2023-10-31T02:24:55;1.30;;;1.20;;
7142;SDS011;3613;48.902;9.204;2023-10-31T02:27:21;1.77;;;1.40;;
7142;SDS011;3613;48.902;9.204;2023-10-31T02:29:49;1.30;;;1.20;;
7142;SDS011;3613;48.902;9.204;2023-10-31T02:32:15;1.20;;;1.10;;
7142;SDS011;3613;48.902;9.204;2023-10-31T02:34:44;1.17;;;1.10;;
7142;SDS011;3613;48.902;9.204;2023-10-31T02:37:12;4.00;;;1.20;;
7142;SDS011;3613;48.902;9.204;2023-10-31T02:39:40;1.20;;;1.00;;
7142;SDS011;3613;48.902;9.204;2023-10-31T02:42:06;1.40;;;1.00;;
7142;SDS011;3613;48.902;9.204;2023-10-31T02:44:32;4.47;;;1.10;;
7142;SDS011;3613;48.902;9.204;2023-10-31T02:46:57;1.17;;;1.00;;
7142;SDS011;3613;48.902;9.204;2023-10-31T02:49:23;2.30;;;1.13;;
7142;SDS011;3613;48.902;9.204;2023-10-31T02:51:49;2.73;;;1.17;;
7142;SDS011;3613;48.902;9.204;2023-10-31T02:54:15;1.90;;;1.73;;
7142;SDS011;3613;48.902;9.204;2023-10-31T02:56:41;3.63;;;1.20;;
7142;SDS011;3613;48.902;9.204;2023-10-31T02:59:06;1.20;;;1.10;;
7142;SDS011;3613;48.902;9.204;2023-10-31T03:01:37;2.67;;;1.20;;
7142;SDS011;3613;48.902;9.204;2023-10-31T03:04:05;1.63;;;1.17;;
7142;SDS011;3613;48.902;9.204;2023-10-31T03:06:31;1.30;;;1.10;;
7142;SDS011;3613;48.902;9.204;2023-10-31T03:08:57;6.33;;;1.40;;
7142;SDS011;3613;48.902;9.204;2023-10-31T03:11:23;1.37;;;1.13;;
7142;SDS011;3613;48.902;9.204;2023-10-31T03:13:50;2.43;;;1.30;;
7142;SDS011;3613;48.902;9.204;2023-10-31T03:16:18;1.40;;;1.10;;
7142;SDS011;3613;48.902;9.204;2023-10-31T03:18:45;2.20;;;1.20;;
7142;SDS011;3613;48.902;9.204;2023-10-31T03:21:11;1.73;;;1.07;;
7142;SDS011;3613;48.902;9.204;2023-10-31T03:23:37;2.10;;;1.67;;
7142;SDS011;3613;48.902;9.204;2023-10-31T03:26:02;1.00;;;1.00;;
7142;SDS011;3613;48.902;9.204;2023-10-31T03:28:28;1.37;;;1.10;;
7142;SDS011;3613;48.902;9.204;2023-10-31T03:30:54;1.20;;;1.10;;
7142;SDS011;3613;48.902;9.204;2023-10-31T03:33:20;1.97;;;1.20;;
7142;SDS011;3613;48.902;9.204;2023-10-31T03:35:48;1.67;;;1.20;;
7142;SDS011;3613;48.902;9.204;2023-10-31T03:38:13;2.93;;;1.10;;
7142;SDS011;3613;48.902;9.204;2023-10-31T03:40:39;1.87;;;1.20;;
7142;SDS011;3613;48.902;9.204;2023-10-31T03:43:05;1.87;;;1.43;;
7142;SDS011;3613;48.902;9.204;2023-10-31T03:45:31;4.93;;;1.60;;
7142;SDS011;3613;48.902;9.204;2023-10-31T03:47:57;1.97;;;1.77;;
7142;SDS011;3613;48.902;9.204;2023-10-31T03:50:23;4.80;;;1.53;;
7142;SDS011;3613;48.902;9.204;2023-10-31T03:52:49;5.10;;;1.40;;
7142;SDS011;3613;48.902;9.204;2023-10-31T03:55:14;3.47;;;1.50;;
7142;SDS011;3613;48.902;9.204;2023-10-31T03:57:40;1.60;;;1.47;;
7142;SDS011;3613;48.902;9.204;2023-10-31T04:00:06;3.70;;;1.30;;
7142;SDS011;3613;48.902;9.204;2023-10-31T04:02:36;2.10;;;1.20;;
7142;SDS011;3613;48.902;9.204;2023-10-31T04:05:04;1.10;;;1.00;;
7142;SDS011;3613;48.902;9.204;2023-10-31T04:07:30;1.40;;;0.80;;
7142;SDS011;3613;48.902;9.204;2023-10-31T04:09:56;1.27;;;1.10;;
7142;SDS011;3613;48.902;9.204;2023-10-31T04:12:24;1.77;;;1.00;;
7142;SDS011;3613;48.902;9.204;2023-10-31T04:14:49;1.10;;;1.00;;
7142;SDS011;3613;48.902;9.204;2023-10-31T04:17:18;1.30;;;1.00;;
7142;SDS011;3613;48.902;9.204;2023-10-31T04:19:43;1.97;;;1.07;;
7142;SDS011;3613;48.902;9.204;2023-10-31T04:22:11;1.07;;;0.90;;
7142;SDS011;3613;48.902;9.204;2023-10-31T04:24:37;3.80;;;1.17;;
7142;SDS011;3613;48.902;9.204;2023-10-31T04:27:03;1.43;;;1.00;;
7142;SDS011;3613;48.902;9.204;2023-10-31T04:29:28;2.53;;;1.10;;
7142;SDS011;3613;48.902;9.204;2023-10-31T04:31:54;2.23;;;1.13;;
7142;SDS011;3613;48.902;9.204;2023-10-31T04:34:20;0.80;;;0.80;;
7142;SDS011;3613;48.902;9.204;2023-10-31T04:36:45;1.00;;;1.00;;
7142;SDS011;3613;48.902;9.204;2023-10-31T04:39:11;0.70;;;0.70;;
7142;SDS011;3613;48.902;9.204;2023-10-31T04:41:37;1.30;;;1.10;;
7142;SDS011;3613;48.902;9.204;2023-10-31T04:44:03;1.23;;;1.10;;
7142;SDS011;3613;48.902;9.204;2023-10-31T04:46:29;1.10;;;1.00;;
7142;SDS011;3613;48.902;9.204;2023-10-31T04:48:55;0.83;;;0.83;;
7142;SDS011;3613;48.902;9.204;2023-10-31T04:51:20;0.90;;;0.90;;
7142;SDS011;3613;48.902;9.204;2023-10-31T04:53:46;2.47;;;0.90;;
7142;SDS011;3613;48.902;9.204;2023-10-31T04:56:13;2.97;;;1.30;;
7142;SDS011;3613;48.902;9.204;2023-10-31T04:58:39;2.30;;;1.00;;
7142;SDS011;3613;48.902;9.204;2023-10-31T05:01:11;1.27;;;1.17;;
7142;SDS011;3613;48.902;9.204;2023-10-31T05:03:38;3.27;;;1.20;;
7142;SDS011;3613;48.902;9.204;2023-10-31T05:06:06;2.43;;;1.37;;
7142;SDS011;3613;48.902;9.204;2023-10-31T05:08:34;1.20;;;1.10;;
7142;SDS011;3613;48.902;9.204;2023-10-31T05:10:59;2.13;;;1.43;;
7142;SDS011;3613;48.902;9.204;2023-10-31T05:13:25;2.97;;;1.20;;
7142;SDS011;3613;48.902;9.204;2023-10-31T05:15:51;1.20;;;1.03;;
7142;SDS011;3613;48.902;9.204;2023-10-31T05:18:19;1.53;;;1.07;;
7142;SDS011;3613;48.902;9.204;2023-10-31T05:20:45;1.47;;;1.20;;
7142;SDS011;3613;48.902;9.204;2023-10-31T05:23:13;2.73;;;1.23;;
7142;SDS011;3613;48.902;9.204;2023-10-31T05:25:41;2.07;;;1.50;;
7142;SDS011;3613;48.902;9.204;2023-10-31T05:28:10;1.47;;;1.20;;
7142;SDS011;3613;48.902;9.204;2023-10-31T05:30:38;2.77;;;1.73;;
7142;SDS011;3613;48.902;9.204;2023-10-31T05:33:04;1.20;;;1.10;;
7142;SDS011;3613;48.902;9.204;2023-10-31T05:35:30;2.10;;;1.30;;
7142;SDS011;3613;48.902;9.204;2023-10-31T05:38:00;1.73;;;1.63;;
7142;SDS011;3613;48.902;9.204;2023-10-31T05:40:26;2.17;;;1.30;;
7142;SDS011;3613;48.902;9.204;2023-10-31T05:42:54;1.37;;;1.20;;
7142;SDS011;3613;48.902;9.204;2023-10-31T05:45:20;1.03;;;1.00;;
7142;SDS011;3613;48.902;9.204;2023-10-31T05:47:49;1.20;;;1.10;;
7142;SDS011;3613;48.902;9.204;2023-10-31T05:50:14;1.83;;;1.00;;
7142;SDS011;3613;48.902;9.204;2023-10-31T05:52:40;1.10;;;1.00;;
7142;SDS011;3613;48.902;9.204;2023-10-31T05:55:06;1.37;;;0.97;;
7142;SDS011;3613;48.902;9.204;2023-10-31T05:57:32;1.90;;;1.10;;
7142;SDS011;3613;48.902;9.204;2023-10-31T05:59:58;2.40;;;1.30;;
7142;SDS011;3613;48.902;9.204;2023-10-31T06:02:24;2.43;;;1.40;;
7142;SDS011;3613;48.902;9.204;2023-10-31T06:04:49;2.67;;;1.53;;
7142;SDS011;3613;48.902;9.204;2023-10-31T06:07:18;1.73;;;1.40;;
7142;SDS011;3613;48.902;9.204;2023-10-31T06:09:43;1.40;;;1.30;;
7142;SDS011;3613;48.902;9.204;2023-10-31T06:12:09;1.90;;;1.20;;
7142;SDS011;3613;48.902;9.204;2023-10-31T06:14:37;1.97;;;1.60;;
7142;SDS011;3613;48.902;9.204;2023-10-31T06:17:03;2.00;;;1.50;;
7142;SDS011;3613;48.902;9.204;2023-10-31T06:19:29;1.97;;;1.40;;
7142;SDS011;3613;48.902;9.204;2023-10-31T06:21:55;2.47;;;1.40;;
7142;SDS011;3613;48.902;9.204;2023-10-31T06:24:21;2.13;;;1.40;;
7142;SDS011;3613;48.902;9.204;2023-10-31T06:26:47;3.27;;;1.40;;
7142;SDS011;3613;48.902;9.204;2023-10-31T06:29:13;2.90;;;1.43;;
7142;SDS011;3613;48.902;9.204;2023-10-31T06:31:38;1.60;;;1.30;;
7142;SDS011;3613;48.902;9.204;2023-10-31T06:34:04;1.90;;;1.40;;
7142;SDS011;3613;48.902;9.204;2023-10-31T06:36:30;1.30;;;1.20;;
7142;SDS011;3613;48.902;9.204;2023-10-31T06:38:59;1.87;;;1.40;;
7142;SDS011;3613;48.902;9.204;2023-10-31T06:41:27;2.13;;;1.30;;
7142;SDS011;3613;48.902;9.204;2023-10-31T06:43:55;2.10;;;1.10;;
7142;SDS011;3613;48.902;9.204;2023-10-31T06:46:23;2.43;;;1.13;;
7142;SDS011;3613;48.902;9.204;2023-10-31T06:48:49;1.20;;;1.10;;
7142;SDS011;3613;48.902;9.204;2023-10-31T06:51:19;1.50;;;0.83;;
7142;SDS011;3613;48.902;9.204;2023-10-31T06:53:44;3.10;;;1.10;;
7142;SDS011;3613;48.902;9.204;2023-10-31T06:56:10;5.03;;;1.87;;
7142;SDS011;3613;48.902;9.204;2023-10-31T06:58:36;2.87;;;1.70;;
7142;SDS011;3613;48.902;9.204;2023-10-31T07:01:02;1.57;;;1.20;;
7142;SDS011;3613;48.902;9.204;2023-10-31T07:03:31;2.03;;;1.20;;
7142;SDS011;3613;48.902;9.204;2023-10-31T07:05:57;0.97;;;0.90;;
7142;SDS011;3613;48.902;9.204;2023-10-31T07:08:24;1.20;;;0.90;;
7142;SDS011;3613;48.902;9.204;2023-10-31T07:10:50;1.60;;;1.03;;
7142;SDS011;3613;48.902;9.204;2023-10-31T07:13:18;1.10;;;1.00;;
7142;SDS011;3613;48.902;9.204;2023-10-31T07:15:43;1.60;;;1.10;;
7142;SDS011;3613;48.902;9.204;2023-10-31T07:18:09;4.13;;;1.43;;
7142;SDS011;3613;48.902;9.204;2023-10-31T07:20:35;3.13;;;1.23;;
7142;SDS011;3613;48.902;9.204;2023-10-31T07:23:01;1.90;;;1.43;;
7142;SDS011;3613;48.902;9.204;2023-10-31T07:25:27;1.70;;;1.10;;
7142;SDS011;3613;48.902;9.204;2023-10-31T07:27:56;1.17;;;1.00;;
7142;SDS011;3613;48.902;9.204;2023-10-31T07:30:22;1.10;;;1.00;;
7142;SDS011;3613;48.902;9.204;2023-10-31T07:32:48;2.60;;;1.20;;
7142;SDS011;3613;48.902;9.204;2023-10-31T07:35:16;1.93;;;1.50;;
7142;SDS011;3613;48.902;9.204;2023-10-31T07:37:41;1.13;;;1.03;;
7142;SDS011;3613;48.902;9.204;2023-10-31T07:40:07;1.13;;;1.03;;
7142;SDS011;3613;48.902;9.204;2023-10-31T07:42:33;4.63;;;1.90;;
7142;SDS011;3613;48.902;9.204;2023-10-31T07:44:59;2.07;;;1.07;;
7142;SDS011;3613;48.902;9.204;2023-10-31T07:47:25;2.30;;;1.17;;
7142;SDS011;3613;48.902;9.204;2023-10-31T07:49:51;1.50;;;1.10;;
7142;SDS011;3613;48.902;9.204;2023-10-31T07:52:18;2.53;;;1.00;;
7142;SDS011;3613;48.902;9.204;2023-10-31T07:54:46;2.33;;;1.30;;
7142;SDS011;3613;48.902;9.204;2023-10-31T07:57:12;2.70;;;1.77;;
7142;SDS011;3613;48.902;9.204;2023-10-31T07:59:40;1.80;;;1.20;;
7142;SDS011;3613;48.902;9.204;2023-10-31T08:02:08;1.70;;;1.23;;
7142;SDS011;3613;48.902;9.204;2023-10-31T08:04:34;4.60;;;1.50;;
7142;SDS011;3613;48.902;9.204;2023-10-31T08:07:02;6.90;;;1.87;;
7142;SDS011;3613;48.902;9.204;2023-10-31T08:09:30;1.93;;;1.40;;
7142;SDS011;3613;48.902;9.204;2023-10-31T08:11:56;1.70;;;1.00;;
7142;SDS011;3613;48.902;9.204;2023-10-31T08:14:22;1.10;;;1.00;;
7142;SDS011;3613;48.902;9.204;2023-10-31T08:16:50;2.27;;;1.40;;
7142;SDS011;3613;48.902;9.204;2023-10-31T08:19:22;2.30;;;1.30;;
7142;SDS011;3613;48.902;9.204;2023-10-31T08:21:47;1.63;;;1.20;;
7142;SDS011;3613;48.902;9.204;2023-10-31T08:24:15;2.20;;;1.37;;
7142;SDS011;3613;48.902;9.204;2023-10-31T08:26:44;1.90;;;1.00;;
7142;SDS011;3613;48.902;9.204;2023-10-31T08:29:10;3.97;;;1.00;;
7142;SDS011;3613;48.902;9.204;2023-10-31T08:31:35;2.63;;;1.33;;
7142;SDS011;3613;48.902;9.204;2023-10-31T08:34:01;1.83;;;1.03;;
7142;SDS011;3613;48.902;9.204;2023-10-31T08:36:29;2.20;;;1.30;;
7142;SDS011;3613;48.902;9.204;2023-10-31T08:38:55;1.80;;;1.20;;
7142;SDS011;3613;48.902;9.204;2023-10-31T08:41:21;1.87;;;1.40;;
7142;SDS011;3613;48.902;9.204;2023-10-31T08:43:47;2.90;;;1.13;;
7142;SDS011;3613;48.902;9.204;2023-10-31T08:46:15;2.93;;;1.23;;
7142;SDS011;3613;48.902;9.204;2023-10-31T08:48:41;1.20;;;1.10;;
7142;SDS011;3613;48.902;9.204;2023-10-31T08:51:06;2.77;;;1.27;;
7142;SDS011;3613;48.902;9.204;2023-10-31T08:53:32;3.80;;;1.30;;
7142;SDS011;3613;48.902;9.204;2023-10-31T08:55:58;2.77;;;1.10;;
7142;SDS011;3613;48.902;9.204;2023-10-31T08:58:29;3.40;;;1.67;;
7142;SDS011;3613;48.902;9.204;2023-10-31T09:00:55;1.07;;;0.97;;
7142;SDS011;3613;48.902;9.204;2023-10-31T09:03:20;1.40;;;1.20;;
7142;SDS011;3613;48.902;9.204;2023-10-31T09:05:46;2.17;;;1.40;;
7142;SDS011;3613;48.902;9.204;2023-10-31T09:08:12;1.43;;;1.20;;
7142;SDS011;3613;48.902;9.204;2023-10-31T09:10:38;1.70;;;1.10;;
7142;SDS011;3613;48.902;9.204;2023-10-31T09:13:04;2.40;;;1.10;;
7142;SDS011;3613;48.902;9.204;2023-10-31T09:15:30;2.13;;;1.33;;
7142;SDS011;3613;48.902;9.204;2023-10-31T09:17:55;3.60;;;1.10;;
7142;SDS011;3613;48.902;9.204;2023-10-31T09:20:21;1.57;;;1.00;;
7142;SDS011;3613;48.902;9.204;2023-10-31T09:22:47;2.23;;;1.00;;
7142;SDS011;3613;48.902;9.204;2023-10-31T09:25:13;2.10;;;1.03;;
7142;SDS011;3613;48.902;9.204;2023-10-31T09:27:41;1.50;;;1.20;;
7142;SDS011;3613;48.902;9.204;2023-10-31T09:30:07;1.50;;;1.10;;
7142;SDS011;3613;48.902;9.204;2023-10-31T09:32:33;1.70;;;1.20;;
7142;SDS011;3613;48.902;9.204;2023-10-31T09:34:59;1.63;;;1.10;;
7142;SDS011;3613;48.902;9.204;2023-10-31T09:37:24;1.83;;;1.13;;
7142;SDS011;3613;48.902;9.204;2023-10-31T09:39:50;2.90;;;1.33;;
7142;SDS011;3613;48.902;9.204;2023-10-31T09:42:19;1.17;;;1.00;;
7142;SDS011;3613;48.902;9.204;2023-10-31T09:44:47;1.50;;;1.33;;
7142;SDS011;3613;48.902;9.204;2023-10-31T09:47:14;2.80;;;1.50;;
7142;SDS011;3613;48.902;9.204;2023-10-31T09:49:43;1.73;;;0.97;;
7142;SDS011;3613;48.902;9.204;2023-10-31T09:52:09;3.53;;;1.00;;
7142;SDS011;3613;48.902;9.204;2023-10-31T09:54:35;4.60;;;1.30;;
7142;SDS011;3613;48.902;9.204;2023-10-31T09:57:03;1.87;;;1.20;;
7142;SDS011;3613;48.902;9.204;2023-10-31T09:59:29;1.40;;;0.93;;
7142;SDS011;3613;48.902;9.204;2023-10-31T10:01:55;3.07;;;1.33;;
7142;SDS011;3613;48.902;9.204;2023-10-31T10:04:21;2.03;;;1.30;;
7142;SDS011;3613;48.902;9.204;2023-10-31T10:07:00;2.97;;;1.60;;
7142;SDS011;3613;48.902;9.204;2023-10-31T10:09:26;2.23;;;1.50;;
7142;SDS011;3613;48.902;9.204;2023-10-31T10:11:53;2.70;;;1.20;;
7142;SDS011;3613;48.902;9.204;2023-10-31T10:14:19;2.53;;;1.33;;
7142;SDS011;3613;48.902;9.204;2023-10-31T10:16:45;3.37;;;1.37;;
7142;SDS011;3613;48.902;9.204;2023-10-31T10:24:21;2.90;;;1.50;;
7142;SDS011;3613;48.902;9.204;2023-10-31T10:26:48;4.03;;;1.20;;
7142;SDS011;3613;48.902;9.204;2023-10-31T10:29:14;2.30;;;1.40;;
7142;SDS011;3613;48.902;9.204;2023-10-31T10:31:40;4.70;;;1.83;;
7142;SDS011;3613;48.902;9.204;2023-10-31T10:34:07;3.07;;;1.27;;
7142;SDS011;3613;48.902;9.204;2023-10-31T10:36:34;2.77;;;1.20;;
7142;SDS011;3613;48.902;9.204;2023-10-31T10:39:02;5.07;;;1.30;;
7142;SDS011;3613;48.902;9.204;2023-10-31T10:41:34;3.37;;;1.20;;
7142;SDS011;3613;48.902;9.204;2023-10-31T10:44:06;2.87;;;1.20;;
7142;SDS011;3613;48.902;9.204;2023-10-31T10:46:35;4.53;;;1.50;;
7142;SDS011;3613;48.902;9.204;2023-10-31T10:49:04;2.33;;;1.40;;
7142;SDS011;3613;48.902;9.204;2023-10-31T10:51:40;3.67;;;1.50;;
7142;SDS011;3613;48.902;9.204;2023-10-31T10:54:32;2.37;;;1.30;;
7142;SDS011;3613;48.902;9.204;2023-10-31T10:59:58;1.27;;;0.80;;
7142;SDS011;3613;48.902;9.204;2023-10-31T11:02:30;3.53;;;1.63;;
7142;SDS011;3613;48.902;9.204;2023-10-31T11:05:02;1.70;;;1.03;;
7142;SDS011;3613;48.902;9.204;2023-10-31T11:07:34;2.40;;;0.90;;
7142;SDS011;3613;48.902;9.204;2023-10-31T11:10:02;1.87;;;1.20;;
7142;SDS011;3613;48.902;9.204;2023-10-31T11:12:31;3.23;;;1.30;;
7142;SDS011;3613;48.902;9.204;2023-10-31T11:14:59;1.80;;;1.30;;
7142;SDS011;3613;48.902;9.204;2023-10-31T11:19:55;1.80;;;1.43;;
7142;SDS011;3613;48.902;9.204;2023-10-31T11:22:21;2.30;;;1.10;;
7142;SDS011;3613;48.902;9.204;2023-10-31T11:24:50;2.57;;;1.10;;
7142;SDS011;3613;48.902;9.204;2023-10-31T11:27:16;1.80;;;1.10;;
7142;SDS011;3613;48.902;9.204;2023-10-31T11:29:45;2.10;;;0.90;;
7142;SDS011;3613;48.902;9.204;2023-10-31T11:32:14;1.33;;;0.97;;
7142;SDS011;3613;48.902;9.204;2023-10-31T11:34:42;2.00;;;1.20;;
7142;SDS011;3613;48.902;9.204;2023-10-31T11:42:51;3.53;;;1.10;;
7142;SDS011;3613;48.902;9.204;2023-10-31T11:45:35;2.40;;;1.37;;
7142;SDS011;3613;48.902;9.204;2023-10-31T11:48:05;1.70;;;1.03;;
7142;SDS011;3613;48.902;9.204;2023-10-31T11:50:32;2.60;;;1.20;;
7142;SDS011;3613;48.902;9.204;2023-10-31T11:55:29;1.10;;;1.00;;
7142;SDS011;3613;48.902;9.204;2023-10-31T11:58:16;4.23;;;1.40;;
7142;SDS011;3613;48.902;9.204;2023-10-31T12:00:49;2.60;;;1.30;;
7142;SDS011;3613;48.902;9.204;2023-10-31T12:03:25;1.47;;;1.33;;
7142;SDS011;3613;48.902;9.204;2023-10-31T12:05:55;1.30;;;1.20;;
7142;SDS011;3613;48.902;9.204;2023-10-31T12:10:53;1.93;;;1.43;;
7142;SDS011;3613;48.902;9.204;2023-10-31T12:13:34;1.20;;;1.10;;
7142;SDS011;3613;48.902;9.204;2023-10-31T12:16:04;1.90;;;1.43;;
7142;SDS011;3613;48.902;9.204;2023-10-31T12:18:31;3.27;;;1.90;;
7142;SDS011;3613;48.902;9.204;2023-10-31T12:20:58;3.00;;;1.70;;
7142;SDS011;3613;48.902;9.204;2023-10-31T12:23:25;4.47;;;2.10;;
7142;SDS011;3613;48.902;9.204;2023-10-31T12:25:51;3.97;;;2.73;;
7142;SDS011;3613;48.902;9.204;2023-10-31T12:28:17;3.53;;;2.33;;
7142;SDS011;3613;48.902;9.204;2023-10-31T12:30:44;3.00;;;2.60;;
7142;SDS011;3613;48.902;9.204;2023-10-31T12:33:13;4.20;;;2.33;;
7142;SDS011;3613;48.902;9.204;2023-10-31T12:35:40;3.43;;;2.60;;
7142;SDS011;3613;48.902;9.204;2023-10-31T12:38:06;3.83;;;2.67;;
7142;SDS011;3613;48.902;9.204;2023-10-31T12:40:35;2.97;;;2.60;;
7142;SDS011;3613;48.902;9.204;2023-10-31T12:43:01;3.13;;;2.43;;
7142;SDS011;3613;48.902;9.204;2023-10-31T12:45:29;2.77;;;2.30;;
7142;SDS011;3613;48.902;9.204;2023-10-31T12:48:07;4.37;;;2.87;;
7142;SDS011;3613;48.902;9.204;2023-10-31T12:50:34;3.73;;;3.00;;
7142;SDS011;3613;48.902;9.204;2023-10-31T12:53:04;4.00;;;3.00;;
7142;SDS011;3613;48.902;9.204;2023-10-31T12:55:36;5.47;;;2.93;;
7142;SDS011;3613;48.902;9.204;2023-10-31T12:58:07;5.13;;;3.50;;
7142;SDS011;3613;48.902;9.204;2023-10-31T13:00:35;5.33;;;3.60;;
7142;SDS011;3613;48.902;9.204;2023-10-31T13:03:04;7.80;;;3.60;;
7142;SDS011;3613;48.902;9.204;2023-10-31T13:05:33;6.00;;;3.73;;
7142;SDS011;3613;48.902;9.204;2023-10-31T13:08:00;5.70;;;3.50;;
7142;SDS011;3613;48.902;9.204;2023-10-31T13:10:29;4.70;;;3.27;;
7142;SDS011;3613;48.902;9.204;2023-10-31T13:12:59;7.03;;;3.20;;
7142;SDS011;3613;48.902;9.204;2023-10-31T13:15:24;5.60;;;3.00;;
7142;SDS011;3613;48.902;9.204;2023-10-31T13:17:50;4.13;;;2.87;;
7142;SDS011;3613;48.902;9.204;2023-10-31T13:20:20;5.70;;;2.70;;
7142;SDS011;3613;48.902;9.204;2023-10-31T13:22:46;3.40;;;2.20;;
7142;SDS011;3613;48.902;9.204;2023-10-31T13:25:13;2.83;;;2.33;;
7142;SDS011;3613;48.902;9.204;2023-10-31T13:27:40;5.13;;;2.83;;
7142;SDS011;3613;48.902;9.204;2023-10-31T13:30:15;4.10;;;2.07;;
7142;SDS011;3613;48.902;9.204;2023-10-31T13:32:42;3.87;;;1.63;;
7142;SDS011;3613;48.902;9.204;2023-10-31T13:35:11;2.73;;;1.60;;
7142;SDS011;3613;48.902;9.204;2023-10-31T13:37:37;3.50;;;1.53;;
7142;SDS011;3613;48.902;9.204;2023-10-31T13:40:03;1.70;;;1.60;;
7142;SDS011;3613;48.902;9.204;2023-10-31T13:42:30;2.40;;;1.50;;
7142;SDS011;3613;48.902;9.204;2023-10-31T13:44:56;1.93;;;1.50;;
7142;SDS011;3613;48.902;9.204;2023-10-31T13:47:21;3.73;;;1.67;;
7142;SDS011;3613;48.902;9.204;2023-10-31T13:49:50;2.20;;;1.50;;
7142;SDS011;3613;48.902;9.204;2023-10-31T13:52:15;2.80;;;1.70;;
7142;SDS011;3613;48.902;9.204;2023-10-31T13:54:41;2.17;;;1.53;;
7142;SDS011;3613;48.902;9.204;2023-10-31T13:57:08;2.03;;;1.20;;
7142;SDS011;3613;48.902;9.204;2023-10-31T13:59:37;1.60;;;1.50;;
7142;SDS011;3613;48.902;9.204;2023-10-31T14:02:07;2.90;;;1.57;;
7142;SDS011;3613;48.902;9.204;2023-10-31T14:04:35;2.80;;;1.50;;
7142;SDS011;3613;48.902;9.204;2023-10-31T14:07:01;1.83;;;1.10;;
7142;SDS011;3613;48.902;9.204;2023-10-31T14:09:26;1.53;;;1.20;;
7142;SDS011;3613;48.902;9.204;2023-10-31T14:11:52;1.50;;;1.10;;
7142;SDS011;3613;48.902;9.204;2023-10-31T14:14:21;2.60;;;1.40;;
7142;SDS011;3613;48.902;9.204;2023-10-31T14:16:49;2.17;;;1.50;;
7142;SDS011;3613;48.902;9.204;2023-10-31T14:19:15;2.13;;;1.20;;
7142;SDS011;3613;48.902;9.204;2023-10-31T14:21:41;2.73;;;1.30;;
7142;SDS011;3613;48.902;9.204;2023-10-31T14:24:07;2.27;;;1.43;;
7142;SDS011;3613;48.902;9.204;2023-10-31T14:26:33;3.37;;;1.30;;
7142;SDS011;3613;48.902;9.204;2023-10-31T14:29:01;1.90;;;1.37;;
7142;SDS011;3613;48.902;9.204;2023-10-31T14:31:27;1.80;;;1.30;;
7142;SDS011;3613;48.902;9.204;2023-10-31T14:33:55;1.77;;;1.40;;
7142;SDS011;3613;48.902;9.204;2023-10-31T14:36:22;2.37;;;1.27;;
7142;SDS011;3613;48.902;9.204;2023-10-31T14:38:48;1.87;;;1.30;;
7142;SDS011;3613;48.902;9.204;2023-10-31T14:41:14;2.17;;;0.90;;
7142;SDS011;3613;48.902;9.204;2023-10-31T14:43:40;3.13;;;1.50;;
7142;SDS011;3613;48.902;9.204;2023-10-31T14:46:05;1.50;;;1.10;;
7142;SDS011;3613;48.902;9.204;2023-10-31T14:48:32;0.90;;;0.90;;
7142;SDS011;3613;48.902;9.204;2023-10-31T14:50:58;1.07;;;1.00;;
7142;SDS011;3613;48.902;9.204;2023-10-31T14:53:26;1.07;;;0.90;;
7142;SDS011;3613;48.902;9.204;2023-10-31T14:55:52;1.77;;;1.10;;
7142;SDS011;3613;48.902;9.204;2023-10-31T14:58:20;2.40;;;1.20;;
7142;SDS011;3613;48.902;9.204;2023-10-31T15:00:46;2.00;;;1.20;;
7142;SDS011;3613;48.902;9.204;2023-10-31T15:03:12;2.30;;;1.53;;
7142;SDS011;3613;48.902;9.204;2023-10-31T15:05:38;2.97;;;1.67;;
7142;SDS011;3613;48.902;9.204;2023-10-31T15:08:04;1.90;;;1.40;;
7142;SDS011;3613;48.902;9.204;2023-10-31T15:10:31;1.67;;;1.30;;
7142;SDS011;3613;48.902;9.204;2023-10-31T15:12:57;1.70;;;1.23;;
7142;SDS011;3613;48.902;9.204;2023-10-31T15:15:25;1.43;;;1.13;;
7142;SDS011;3613;48.902;9.204;2023-10-31T15:17:53;2.53;;;1.30;;
7142;SDS011;3613;48.902;9.204;2023-10-31T15:20:19;2.33;;;1.50;;
7142;SDS011;3613;48.902;9.204;2023-10-31T15:22:45;1.77;;;1.30;;
7142;SDS011;3613;48.902;9.204;2023-10-31T15:25:14;2.27;;;1.17;;
7142;SDS011;3613;48.902;9.204;2023-10-31T15:27:40;3.33;;;1.87;;
7142;SDS011;3613;48.902;9.204;2023-10-31T15:30:08;2.03;;;1.37;;
7142;SDS011;3613;48.902;9.204;2023-10-31T15:32:35;2.97;;;1.60;;
7142;SDS011;3613;48.902;9.204;2023-10-31T15:35:05;0.97;;;0.80;;